createdAt,value
2018-06-07T00:00:57.257Z,1007.85
2018-06-07T00:02:06.411Z,1007.84
2018-06-07T00:03:15.819Z,1007.86
2018-06-07T00:04:25.755Z,1007.86
2018-06-07T00:05:35.166Z,1007.85
2018-06-07T00:06:44.610Z,1007.85
2018-06-07T00:07:53.812Z,1007.87
2018-06-07T00:09:03.515Z,1007.83
2018-06-07T00:10:13.194Z,1007.84
2018-06-07T00:11:22.655Z,1007.8
2018-06-07T00:12:32.573Z,1007.83
2018-06-07T00:13:42.280Z,1007.83
2018-06-07T00:14:51.993Z,1007.83
2018-06-07T00:16:00.923Z,1007.83
2018-06-07T00:17:10.120Z,1007.9
2018-06-07T00:18:19.833Z,1007.88
2018-06-07T00:19:29.268Z,1007.94
2018-06-07T00:20:38.717Z,1007.94
2018-06-07T00:21:48.381Z,1007.96
2018-06-07T00:22:57.834Z,1007.94
2018-06-07T00:24:06.732Z,1007.92
2018-06-07T00:25:15.905Z,1007.9
2018-06-07T00:26:25.317Z,1007.92
2018-06-07T00:27:35.043Z,1007.91
2018-06-07T00:28:44.459Z,1007.9
2018-06-07T00:29:53.614Z,1007.93
2018-06-07T00:31:03.046Z,1007.96
2018-06-07T00:32:12.460Z,1007.95
2018-06-07T00:33:21.604Z,1007.95
2018-06-07T00:34:31.016Z,1007.98
2018-06-07T00:35:40.672Z,1007.99
2018-06-07T00:36:50.086Z,1007.97
2018-06-07T00:37:59.761Z,1007.98
2018-06-07T00:39:08.399Z,1007.99
2018-06-07T00:40:18.188Z,1007.98
2018-06-07T00:41:27.093Z,1007.94
2018-06-07T00:42:37.020Z,1007.98
2018-06-07T00:43:46.694Z,1007.97
2018-06-07T00:44:55.856Z,1007.97
2018-06-07T00:46:04.756Z,1008.01
2018-06-07T00:47:14.435Z,1008.01
2018-06-07T00:48:23.337Z,1008.02
2018-06-07T00:49:33.012Z,1008
2018-06-07T00:50:42.689Z,1008.04
2018-06-07T00:51:52.116Z,1008.04
2018-06-07T00:53:01.271Z,1008.03
2018-06-07T00:54:10.694Z,1008.04
2018-06-07T00:55:20.380Z,1008.05
2018-06-07T00:56:29.554Z,1008.09
2018-06-07T00:57:38.995Z,1008.08
2018-06-07T00:58:48.667Z,1008.11
2018-06-07T00:59:58.091Z,1008.09
2018-06-07T01:01:07.520Z,1008.09
2018-06-07T01:02:17.203Z,1008.08
2018-06-07T01:03:26.623Z,1008.05
2018-06-07T01:04:36.043Z,1008.06
2018-06-07T01:05:45.460Z,1008.09
2018-06-07T01:06:54.676Z,1008.08
2018-06-07T01:08:03.826Z,1008.13
2018-06-07T01:09:12.975Z,1008.12
2018-06-07T01:10:22.394Z,1008.09
2018-06-07T01:11:32.089Z,1008.15
2018-06-07T01:12:41.269Z,1008.12
2018-06-07T01:13:50.425Z,1008.13
2018-06-07T01:14:59.580Z,1008.15
2018-06-07T01:16:09.002Z,1008.17
2018-06-07T01:17:18.935Z,1008.16
2018-06-07T01:18:28.094Z,1008.19
2018-06-07T01:19:37.260Z,1008.18
2018-06-07T01:20:46.423Z,1008.24
2018-06-07T01:21:55.847Z,1008.2
2018-06-07T01:23:05.524Z,1008.2
2018-06-07T01:24:14.434Z,1008.15
2018-06-07T01:25:24.101Z,1008.17
2018-06-07T01:26:33.506Z,1008.17
2018-06-07T01:27:42.405Z,1008.18
2018-06-07T01:28:51.043Z,1008.2
2018-06-07T01:30:00.448Z,1008.19
2018-06-07T01:31:09.611Z,1008.2
2018-06-07T01:32:18.755Z,1008.2
2018-06-07T01:33:27.915Z,1008.24
2018-06-07T01:34:37.332Z,1008.31
2018-06-07T01:35:46.792Z,1008.31
2018-06-07T01:36:56.710Z,1008.32
2018-06-07T01:38:05.864Z,1008.33
2018-06-07T01:39:15.015Z,1008.33
2018-06-07T01:40:24.705Z,1008.35
2018-06-07T01:41:34.357Z,1008.31
2018-06-07T01:42:44.060Z,1008.3
2018-06-07T01:43:53.213Z,1008.35
2018-06-07T01:45:02.647Z,1008.34
2018-06-07T01:46:12.064Z,1008.37
2018-06-07T01:47:21.231Z,1008.31
2018-06-07T01:48:30.392Z,1008.29
2018-06-07T01:49:39.599Z,1008.28
2018-06-07T01:50:48.747Z,1008.32
2018-06-07T01:51:58.411Z,1008.26
2018-06-07T01:53:07.317Z,1008.24
2018-06-07T01:54:16.487Z,1008.26
2018-06-07T01:55:26.140Z,1008.24
2018-06-07T01:56:35.546Z,1008.22
2018-06-07T01:57:45.212Z,1008.29
2018-06-07T01:58:54.120Z,1008.29
2018-06-07T02:00:03.546Z,1008.25
2018-06-07T02:01:12.693Z,1008.29
2018-06-07T02:02:22.390Z,1008.27
2018-06-07T02:03:31.803Z,1008.3
2018-06-07T02:04:40.959Z,1008.34
2018-06-07T02:05:50.120Z,1008.33
2018-06-07T02:06:59.784Z,1008.3
2018-06-07T02:08:09.188Z,1008.29
2018-06-07T02:09:18.335Z,1008.35
2018-06-07T02:10:27.481Z,1008.36
2018-06-07T02:11:36.636Z,1008.36
2018-06-07T02:12:46.309Z,1008.43
2018-06-07T02:13:55.972Z,1008.55
2018-06-07T02:15:05.416Z,1008.65
2018-06-07T02:16:14.587Z,1008.74
2018-06-07T02:17:24.017Z,1008.69
2018-06-07T02:18:33.678Z,1008.61
2018-06-07T02:19:43.082Z,1008.65
2018-06-07T02:20:52.745Z,1008.77
2018-06-07T02:22:01.391Z,1008.71
2018-06-07T02:23:11.076Z,1008.71
2018-06-07T02:24:20.487Z,1008.73
2018-06-07T02:25:29.631Z,1008.75
2018-06-07T02:26:39.041Z,1008.74
2018-06-07T02:27:48.710Z,1008.75
2018-06-07T02:28:58.627Z,1008.75
2018-06-07T02:30:08.043Z,1008.76
2018-06-07T02:31:17.990Z,1008.75
2018-06-07T02:32:27.421Z,1008.85
2018-06-07T02:33:37.103Z,1008.88
2018-06-07T02:34:47.043Z,1008.96
2018-06-07T02:35:56.736Z,1008.97
2018-06-07T02:37:06.162Z,1008.98
2018-06-07T02:38:15.825Z,1008.95
2018-06-07T02:39:24.983Z,1008.95
2018-06-07T02:40:34.454Z,1008.97
2018-06-07T02:41:43.877Z,1008.96
2018-06-07T02:42:53.563Z,1008.99
2018-06-07T02:44:02.747Z,1009.03
2018-06-07T02:45:12.729Z,1009.06
2018-06-07T02:46:21.885Z,1009.04
2018-06-07T02:47:31.297Z,1009
2018-06-07T02:48:40.698Z,1009
2018-06-07T02:49:50.359Z,1008.94
2018-06-07T02:50:59.248Z,1008.88
2018-06-07T02:52:08.412Z,1008.87
2018-06-07T02:53:17.890Z,1008.9
2018-06-07T02:54:27.566Z,1008.91
2018-06-07T02:55:37.226Z,1009
2018-06-07T02:56:46.698Z,1009.05
2018-06-07T02:57:56.375Z,1009.03
2018-06-07T02:59:05.524Z,1009.03
2018-06-07T03:00:14.933Z,1009.05
2018-06-07T03:01:24.365Z,1009.07
2018-06-07T03:02:33.806Z,1009.08
2018-06-07T03:03:43.224Z,1009.04
2018-06-07T03:04:52.638Z,1009.07
2018-06-07T03:06:02.301Z,1009.07
2018-06-07T03:07:11.978Z,1009.06
2018-06-07T03:08:21.634Z,1009.04
2018-06-07T03:09:31.039Z,1009.03
2018-06-07T03:10:40.711Z,1009.07
2018-06-07T03:11:50.127Z,1009.08
2018-06-07T03:12:59.785Z,1009.13
2018-06-07T03:14:09.240Z,1009.08
2018-06-07T03:15:17.877Z,1009.08
2018-06-07T03:16:27.029Z,1009.06
2018-06-07T03:17:36.190Z,1009.06
2018-06-07T03:18:45.850Z,1009.05
2018-06-07T03:19:54.995Z,1009.1
2018-06-07T03:21:04.416Z,1009.12
2018-06-07T03:22:14.112Z,1009.13
2018-06-07T03:23:24.027Z,1009.15
2018-06-07T03:24:33.950Z,1009.17
2018-06-07T03:25:43.096Z,1009.18
2018-06-07T03:26:52.253Z,1009.18
2018-06-07T03:28:01.920Z,1009.2
2018-06-07T03:29:11.075Z,1009.25
2018-06-07T03:30:20.743Z,1009.21
2018-06-07T03:31:30.507Z,1009.22
2018-06-07T03:32:40.503Z,1009.23
2018-06-07T03:33:50.186Z,1009.25
2018-06-07T03:35:00.110Z,1009.24
2018-06-07T03:36:09.525Z,1009.23
2018-06-07T03:37:18.911Z,1009.2
2018-06-07T03:38:28.327Z,1009.25
2018-06-07T03:39:37.743Z,1009.24
2018-06-07T03:40:47.162Z,1009.26
2018-06-07T03:41:56.060Z,1009.24
2018-06-07T03:43:05.218Z,1009.27
2018-06-07T03:44:14.634Z,1009.25
2018-06-07T03:45:24.044Z,1009.3
2018-06-07T03:46:32.938Z,1009.29
2018-06-07T03:47:42.344Z,1009.32
2018-06-07T03:48:50.998Z,1009.31
2018-06-07T03:50:00.141Z,1009.26
2018-06-07T03:51:09.332Z,1009.29
2018-06-07T03:52:19.253Z,1009.28
2018-06-07T03:53:29.237Z,1009.32
2018-06-07T03:54:38.662Z,1009.31
2018-06-07T03:55:47.820Z,1009.35
2018-06-07T03:56:57.251Z,1009.35
2018-06-07T03:58:06.925Z,1009.34
2018-06-07T03:59:16.388Z,1009.36
2018-06-07T04:00:25.569Z,1009.36
2018-06-07T04:01:35.226Z,1009.37
2018-06-07T04:02:44.384Z,1009.4
2018-06-07T04:03:53.587Z,1009.4
2018-06-07T04:05:02.980Z,1009.38
2018-06-07T04:06:11.981Z,1009.41
2018-06-07T04:07:21.778Z,1009.42
2018-06-07T04:08:30.687Z,1009.45
2018-06-07T04:09:39.865Z,1009.48
2018-06-07T04:10:49.297Z,1009.5
2018-06-07T04:11:58.712Z,1009.47
2018-06-07T04:13:08.151Z,1009.49
2018-06-07T04:14:17.824Z,1009.48
2018-06-07T04:15:26.989Z,1009.47
2018-06-07T04:16:36.157Z,1009.48
2018-06-07T04:17:45.835Z,1009.47
2018-06-07T04:18:54.984Z,1009.49
2018-06-07T04:20:04.419Z,1009.51
2018-06-07T04:21:13.574Z,1009.54
2018-06-07T04:22:23.000Z,1009.53
2018-06-07T04:23:32.410Z,1009.57
2018-06-07T04:24:42.115Z,1009.59
2018-06-07T04:25:51.530Z,1009.56
2018-06-07T04:27:01.196Z,1009.61
2018-06-07T04:28:10.632Z,1009.59
2018-06-07T04:29:20.300Z,1009.58
2018-06-07T04:30:29.729Z,1009.6
2018-06-07T04:31:39.410Z,1009.62
2018-06-07T04:32:49.091Z,1009.63
2018-06-07T04:33:58.550Z,1009.66
2018-06-07T04:35:07.957Z,1009.67
2018-06-07T04:36:17.635Z,1009.68
2018-06-07T04:37:27.341Z,1009.68
2018-06-07T04:38:36.522Z,1009.7
2018-06-07T04:39:45.942Z,1009.76
2018-06-07T04:40:55.361Z,1009.77
2018-06-07T04:42:04.545Z,1009.78
2018-06-07T04:43:13.972Z,1009.8
2018-06-07T04:44:23.684Z,1009.8
2018-06-07T04:45:33.087Z,1009.82
2018-06-07T04:46:42.758Z,1009.8
2018-06-07T04:47:52.425Z,1009.83
2018-06-07T04:49:01.596Z,1009.8
2018-06-07T04:50:10.767Z,1009.78
2018-06-07T04:51:20.451Z,1009.84
2018-06-07T04:52:29.951Z,1009.82
2018-06-07T04:53:39.104Z,1009.82
2018-06-07T04:54:48.767Z,1009.85
2018-06-07T04:55:57.728Z,1009.87
2018-06-07T04:57:07.407Z,1009.92
2018-06-07T04:58:16.817Z,1009.88
2018-06-07T04:59:26.233Z,1009.88
2018-06-07T05:00:35.448Z,1009.88
2018-06-07T05:01:45.357Z,1009.88
2018-06-07T05:02:54.760Z,1009.83
2018-06-07T05:04:03.669Z,1009.87
2018-06-07T05:05:13.079Z,1009.87
2018-06-07T05:06:22.286Z,1009.84
2018-06-07T05:07:31.696Z,1009.87
2018-06-07T05:08:40.847Z,1009.88
2018-06-07T05:09:50.859Z,1009.89
2018-06-07T05:11:00.279Z,1009.92
2018-06-07T05:12:09.692Z,1009.9
2018-06-07T05:13:19.679Z,1009.89
2018-06-07T05:14:28.854Z,1009.91
2018-06-07T05:15:38.303Z,1009.89
2018-06-07T05:16:48.250Z,1009.91
2018-06-07T05:17:57.659Z,1009.9
2018-06-07T05:19:06.569Z,1009.94
2018-06-07T05:20:15.996Z,1009.96
2018-06-07T05:21:25.420Z,1009.95
2018-06-07T05:22:35.112Z,1009.94
2018-06-07T05:23:44.775Z,1009.96
2018-06-07T05:24:54.475Z,1009.96
2018-06-07T05:26:03.745Z,1009.97
2018-06-07T05:27:13.154Z,1009.96
2018-06-07T05:28:22.558Z,1010.01
2018-06-07T05:29:32.213Z,1010
2018-06-07T05:30:41.622Z,1010
2018-06-07T05:31:51.294Z,1010.01
2018-06-07T05:33:01.344Z,1010.02
2018-06-07T05:34:10.508Z,1010.01
2018-06-07T05:35:20.455Z,1010
2018-06-07T05:36:29.603Z,1010.04
2018-06-07T05:37:38.774Z,1010.06
2018-06-07T05:38:48.477Z,1010.06
2018-06-07T05:39:58.013Z,1010.08
2018-06-07T05:41:07.419Z,1010.09
2018-06-07T05:42:17.089Z,1010.12
2018-06-07T05:43:26.773Z,1010.13
2018-06-07T05:44:35.936Z,1010.12
2018-06-07T05:45:45.353Z,1010.13
2018-06-07T05:46:54.780Z,1010.15
2018-06-07T05:48:04.362Z,1010.17
2018-06-07T05:49:13.284Z,1010.2
2018-06-07T05:50:22.452Z,1010.16
2018-06-07T05:51:32.396Z,1010.14
2018-06-07T05:52:42.567Z,1010.2
2018-06-07T05:53:51.988Z,1010.18
2018-06-07T05:55:01.661Z,1010.21
2018-06-07T05:56:11.376Z,1010.21
2018-06-07T05:57:21.125Z,1010.23
2018-06-07T05:58:30.321Z,1010.24
2018-06-07T05:59:39.758Z,1010.21
2018-06-07T06:00:49.382Z,1010.21
2018-06-07T06:01:58.873Z,1010.21
2018-06-07T06:03:08.344Z,1010.26
2018-06-07T06:04:18.467Z,1010.28
2018-06-07T06:05:27.680Z,1010.23
2018-06-07T06:06:37.260Z,1010.29
2018-06-07T06:07:46.940Z,1010.25
2018-06-07T06:08:56.878Z,1010.28
2018-06-07T06:10:06.032Z,1010.29
2018-06-07T06:11:14.942Z,1010.29
2018-06-07T06:12:25.113Z,1010.31
2018-06-07T06:13:34.261Z,1010.32
2018-06-07T06:14:43.955Z,1010.32
2018-06-07T06:15:53.120Z,1010.32
2018-06-07T06:17:02.564Z,1010.32
2018-06-07T06:18:12.236Z,1010.33
2018-06-07T06:19:21.660Z,1010.3
2018-06-07T06:20:31.377Z,1010.26
2018-06-07T06:21:41.330Z,1010.3
2018-06-07T06:22:50.863Z,1010.32
2018-06-07T06:24:00.846Z,1010.31
2018-06-07T06:25:10.539Z,1010.32
2018-06-07T06:26:20.278Z,1010.3
2018-06-07T06:27:29.699Z,1010.31
2018-06-07T06:28:39.143Z,1010.3
2018-06-07T06:29:48.812Z,1010.28
2018-06-07T06:30:57.780Z,1010.3
2018-06-07T06:32:07.458Z,1010.28
2018-06-07T06:33:16.910Z,1010.29
2018-06-07T06:34:26.713Z,1010.31
2018-06-07T06:35:36.160Z,1010.33
2018-06-07T06:36:45.605Z,1010.3
2018-06-07T06:37:54.778Z,1010.33
2018-06-07T06:39:04.479Z,1010.33
2018-06-07T06:40:14.510Z,1010.36
2018-06-07T06:41:24.212Z,1010.37
2018-06-07T06:42:34.165Z,1010.34
2018-06-07T06:43:43.887Z,1010.35
2018-06-07T06:44:52.801Z,1010.35
2018-06-07T06:46:01.975Z,1010.33
2018-06-07T06:47:10.891Z,1010.34
2018-06-07T06:48:20.073Z,1010.35
2018-06-07T06:49:30.059Z,1010.36
2018-06-07T06:50:39.865Z,1010.33
2018-06-07T06:51:49.064Z,1010.35
2018-06-07T06:52:58.001Z,1010.34
2018-06-07T06:54:07.206Z,1010.3
2018-06-07T06:55:16.918Z,1010.32
2018-06-07T06:56:26.104Z,1010.31
2018-06-07T06:57:36.049Z,1010.31
2018-06-07T06:58:45.730Z,1010.32
2018-06-07T06:59:55.413Z,1010.3
2018-06-07T07:01:05.356Z,1010.31
2018-06-07T07:02:14.540Z,1010.29
2018-06-07T07:03:24.230Z,1010.3
2018-06-07T07:04:33.384Z,1010.31
2018-06-07T07:05:42.817Z,1010.31
2018-06-07T07:06:52.298Z,1010.34
2018-06-07T07:08:01.484Z,1010.33
2018-06-07T07:09:10.728Z,1010.32
2018-06-07T07:10:20.651Z,1010.3
2018-06-07T07:11:30.392Z,1010.3
2018-06-07T07:12:39.811Z,1010.35
2018-06-07T07:13:49.241Z,1010.37
2018-06-07T07:14:58.393Z,1010.38
2018-06-07T07:16:07.558Z,1010.38
2018-06-07T07:17:16.711Z,1010.39
2018-06-07T07:18:25.604Z,1010.4
2018-06-07T07:19:35.306Z,1010.45
2018-06-07T07:20:44.977Z,1010.4
2018-06-07T07:21:54.144Z,1010.42
2018-06-07T07:23:03.634Z,1010.39
2018-06-07T07:24:13.710Z,1010.41
2018-06-07T07:25:23.392Z,1010.37
2018-06-07T07:26:33.376Z,1010.39
2018-06-07T07:27:43.299Z,1010.36
2018-06-07T07:28:52.473Z,1010.36
2018-06-07T07:30:01.933Z,1010.4
2018-06-07T07:31:10.864Z,1010.38
2018-06-07T07:32:19.773Z,1010.39
2018-06-07T07:33:28.933Z,1010.38
2018-06-07T07:34:38.591Z,1010.37
2018-06-07T07:35:48.060Z,1010.36
2018-06-07T07:36:58.003Z,1010.33
2018-06-07T07:38:07.174Z,1010.34
2018-06-07T07:39:16.330Z,1010.3
2018-06-07T07:40:25.234Z,1010.34
2018-06-07T07:41:34.661Z,1010.32
2018-06-07T07:42:44.097Z,1010.33
2018-06-07T07:43:53.015Z,1010.33
2018-06-07T07:45:02.433Z,1010.33
2018-06-07T07:46:12.375Z,1010.33
2018-06-07T07:47:21.045Z,1010.3
2018-06-07T07:48:31.054Z,1010.35
2018-06-07T07:49:40.505Z,1010.31
2018-06-07T07:50:50.222Z,1010.29
2018-06-07T07:51:59.675Z,1010.31
2018-06-07T07:53:09.363Z,1010.31
2018-06-07T07:54:18.784Z,1010.27
2018-06-07T07:55:28.205Z,1010.29
2018-06-07T07:56:37.114Z,1010.28
2018-06-07T07:57:46.548Z,1010.23
2018-06-07T07:58:55.705Z,1010.25
2018-06-07T08:00:05.377Z,1010.25
2018-06-07T08:01:14.811Z,1010.26
2018-06-07T08:02:24.230Z,1010.27
2018-06-07T08:03:33.664Z,1010.25
2018-06-07T08:04:42.817Z,1010.25
2018-06-07T08:05:52.509Z,1010.24
2018-06-07T08:07:01.940Z,1010.27
2018-06-07T08:08:11.120Z,1010.31
2018-06-07T08:09:20.343Z,1010.27
2018-06-07T08:10:30.028Z,1010.27
2018-06-07T08:11:39.711Z,1010.25
2018-06-07T08:12:49.420Z,1010.26
2018-06-07T08:13:58.823Z,1010.31
2018-06-07T08:15:07.732Z,1010.29
2018-06-07T08:16:17.210Z,1010.3
2018-06-07T08:17:26.620Z,1010.34
2018-06-07T08:18:36.586Z,1010.31
2018-06-07T08:19:46.006Z,1010.29
2018-06-07T08:20:55.474Z,1010.31
2018-06-07T08:22:04.896Z,1010.32
2018-06-07T08:23:14.840Z,1010.33
2018-06-07T08:24:24.784Z,1010.31
2018-06-07T08:25:34.458Z,1010.3
2018-06-07T08:26:44.133Z,1010.29
2018-06-07T08:27:53.544Z,1010.3
2018-06-07T08:29:02.453Z,1010.31
2018-06-07T08:30:11.883Z,1010.34
2018-06-07T08:31:21.052Z,1010.32
2018-06-07T08:32:30.714Z,1010.36
2018-06-07T08:33:39.615Z,1010.38
2018-06-07T08:34:49.042Z,1010.4
2018-06-07T08:35:58.463Z,1010.4
2018-06-07T08:37:07.630Z,1010.4
2018-06-07T08:38:17.570Z,1010.37
2018-06-07T08:39:27.035Z,1010.34
2018-06-07T08:40:36.573Z,1010.39
2018-06-07T08:41:45.976Z,1010.37
2018-06-07T08:42:55.687Z,1010.36
2018-06-07T08:44:04.851Z,1010.38
2018-06-07T08:45:14.009Z,1010.37
2018-06-07T08:46:23.687Z,1010.37
2018-06-07T08:47:33.379Z,1010.36
2018-06-07T08:48:43.061Z,1010.41
2018-06-07T08:49:51.969Z,1010.38
2018-06-07T08:51:01.649Z,1010.4
2018-06-07T08:52:11.072Z,1010.36
2018-06-07T08:53:20.495Z,1010.38
2018-06-07T08:54:29.931Z,1010.35
2018-06-07T08:55:39.374Z,1010.37
2018-06-07T08:56:48.539Z,1010.35
2018-06-07T08:57:57.698Z,1010.35
2018-06-07T08:59:07.184Z,1010.39
2018-06-07T09:00:16.714Z,1010.39
2018-06-07T09:01:26.499Z,1010.39
2018-06-07T09:02:35.396Z,1010.4
2018-06-07T09:03:44.821Z,1010.43
2018-06-07T09:04:53.731Z,1010.42
2018-06-07T09:06:03.177Z,1010.38
2018-06-07T09:07:12.590Z,1010.39
2018-06-07T09:08:22.037Z,1010.37
2018-06-07T09:09:31.447Z,1010.38
2018-06-07T09:10:40.865Z,1010.37
2018-06-07T09:11:50.294Z,1010.35
2018-06-07T09:12:59.216Z,1010.36
2018-06-07T09:14:08.633Z,1010.38
2018-06-07T09:15:18.041Z,1010.33
2018-06-07T09:16:27.484Z,1010.31
2018-06-07T09:17:36.646Z,1010.37
2018-06-07T09:18:46.846Z,1010.33
2018-06-07T09:19:56.304Z,1010.37
2018-06-07T09:21:05.474Z,1010.35
2018-06-07T09:22:14.395Z,1010.32
2018-06-07T09:23:23.571Z,1010.33
2018-06-07T09:24:32.984Z,1010.36
2018-06-07T09:25:42.685Z,1010.37
2018-06-07T09:26:51.592Z,1010.34
2018-06-07T09:28:00.512Z,1010.32
2018-06-07T09:29:09.431Z,1010.34
2018-06-07T09:30:18.851Z,1010.36
2018-06-07T09:31:28.295Z,1010.32
2018-06-07T09:32:37.992Z,1010.31
2018-06-07T09:33:47.411Z,1010.26
2018-06-07T09:34:56.845Z,1010.3
2018-06-07T09:36:05.743Z,1010.33
2018-06-07T09:37:14.650Z,1010.29
2018-06-07T09:38:24.069Z,1010.31
2018-06-07T09:39:33.515Z,1010.33
2018-06-07T09:40:42.938Z,1010.34
2018-06-07T09:41:52.618Z,1010.31
2018-06-07T09:43:02.307Z,1010.28
2018-06-07T09:44:11.484Z,1010.31
2018-06-07T09:45:21.162Z,1010.28
2018-06-07T09:46:30.360Z,1010.32
2018-06-07T09:47:39.790Z,1010.3
2018-06-07T09:48:48.958Z,1010.31
2018-06-07T09:49:58.889Z,1010.32
2018-06-07T09:51:08.060Z,1010.29
2018-06-07T09:52:17.493Z,1010.28
2018-06-07T09:53:26.945Z,1010.3
2018-06-07T09:54:36.384Z,1010.3
2018-06-07T09:55:45.305Z,1010.26
2018-06-07T09:56:55.000Z,1010.32
2018-06-07T09:58:04.755Z,1010.3
2018-06-07T09:59:15.117Z,1010.31
2018-06-07T10:00:24.282Z,1010.33
2018-06-07T10:01:34.250Z,1010.34
2018-06-07T10:02:43.668Z,1010.31
2018-06-07T10:03:53.111Z,1010.3
2018-06-07T10:05:02.532Z,1010.31
2018-06-07T10:06:11.958Z,1010.28
2018-06-07T10:07:21.646Z,1010.3
2018-06-07T10:08:30.555Z,1010.31
2018-06-07T10:09:39.993Z,1010.28
2018-06-07T10:10:49.680Z,1010.28
2018-06-07T10:11:59.125Z,1010.3
2018-06-07T10:13:08.569Z,1010.27
2018-06-07T10:14:17.723Z,1010.33
2018-06-07T10:15:27.155Z,1010.33
2018-06-07T10:16:36.580Z,1010.31
2018-06-07T10:17:45.468Z,1010.31
2018-06-07T10:18:55.395Z,1010.3
2018-06-07T10:20:04.555Z,1010.29
2018-06-07T10:21:14.233Z,1010.28
2018-06-07T10:22:23.698Z,1010.31
2018-06-07T10:23:33.437Z,1010.32
2018-06-07T10:24:42.860Z,1010.29
2018-06-07T10:25:52.026Z,1010.31
2018-06-07T10:27:01.467Z,1010.31
2018-06-07T10:28:11.165Z,1010.32
2018-06-07T10:29:20.852Z,1010.33
2018-06-07T10:30:30.263Z,1010.33
2018-06-07T10:31:39.945Z,1010.34
2018-06-07T10:32:49.355Z,1010.36
2018-06-07T10:33:58.772Z,1010.36
2018-06-07T10:35:07.676Z,1010.39
2018-06-07T10:36:17.097Z,1010.39
2018-06-07T10:37:26.511Z,1010.39
2018-06-07T10:38:35.946Z,1010.39
2018-06-07T10:39:44.845Z,1010.38
2018-06-07T10:40:54.263Z,1010.37
2018-06-07T10:42:02.908Z,1010.37
2018-06-07T10:43:12.326Z,1010.34
2018-06-07T10:44:21.740Z,1010.35
2018-06-07T10:45:30.642Z,1010.36
2018-06-07T10:46:39.584Z,1010.32
2018-06-07T10:47:48.498Z,1010.29
2018-06-07T10:48:57.678Z,1010.26
2018-06-07T10:50:07.129Z,1010.28
2018-06-07T10:51:17.031Z,1010.29
2018-06-07T10:52:26.454Z,1010.28
2018-06-07T10:53:35.901Z,1010.31
2018-06-07T10:54:45.065Z,1010.26
2018-06-07T10:55:54.525Z,1010.28
2018-06-07T10:57:03.942Z,1010.29
2018-06-07T10:58:12.847Z,1010.27
2018-06-07T10:59:22.508Z,1010.29
2018-06-07T11:00:31.448Z,1010.21
2018-06-07T11:01:40.608Z,1010.23
2018-06-07T11:02:50.048Z,1010.26
2018-06-07T11:03:59.466Z,1010.28
2018-06-07T11:05:08.910Z,1010.29
2018-06-07T11:06:18.313Z,1010.25
2018-06-07T11:07:27.458Z,1010.23
2018-06-07T11:08:36.626Z,1010.29
2018-06-07T11:09:45.792Z,1010.28
2018-06-07T11:10:54.938Z,1010.24
2018-06-07T11:12:04.368Z,1010.25
2018-06-07T11:13:13.522Z,1010.28
2018-06-07T11:14:22.731Z,1010.23
2018-06-07T11:15:32.170Z,1010.18
2018-06-07T11:16:42.281Z,1010.23
2018-06-07T11:17:51.963Z,1010.24
2018-06-07T11:19:01.433Z,1010.24
2018-06-07T11:20:10.843Z,1010.21
2018-06-07T11:21:20.015Z,1010.18
2018-06-07T11:22:29.708Z,1010.21
2018-06-07T11:23:39.131Z,1010.23
2018-06-07T11:24:51.371Z,1010.23
2018-06-07T11:26:01.028Z,1010.21
2018-06-07T11:27:10.458Z,1010.24
2018-06-07T11:28:19.875Z,1010.21
2018-06-07T11:29:29.539Z,1010.16
2018-06-07T11:30:38.964Z,1010.19
2018-06-07T11:31:48.128Z,1010.19
2018-06-07T11:32:57.556Z,1010.15
2018-06-07T11:34:07.251Z,1010.2
2018-06-07T11:35:16.928Z,1010.15
2018-06-07T11:36:26.339Z,1010.18
2018-06-07T11:37:35.254Z,1010.17
2018-06-07T11:38:44.920Z,1010.16
2018-06-07T11:39:54.344Z,1010.11
2018-06-07T11:41:03.274Z,1010.07
2018-06-07T11:42:12.212Z,1010.12
2018-06-07T11:43:21.906Z,1010.1
2018-06-07T11:44:31.331Z,1010.11
2018-06-07T11:45:40.504Z,1010.16
2018-06-07T11:46:49.941Z,1010.11
2018-06-07T11:47:59.349Z,1010.12
2018-06-07T11:49:08.317Z,1010.11
2018-06-07T11:50:17.781Z,1010.11
2018-06-07T11:51:27.450Z,1010.14
2018-06-07T11:52:36.874Z,1010.16
2018-06-07T11:53:46.038Z,1010.06
2018-06-07T11:54:55.858Z,1010.04
2018-06-07T11:56:05.431Z,1010.01
2018-06-07T11:57:14.072Z,1010.01
2018-06-07T11:58:23.520Z,1010.01
2018-06-07T11:59:32.946Z,1010.01
2018-06-07T12:00:43.220Z,1010.01
2018-06-07T12:01:52.646Z,1009.99
2018-06-07T12:03:02.338Z,1009.99
2018-06-07T12:04:11.787Z,1010.02
2018-06-07T12:05:20.707Z,1010.03
2018-06-07T12:06:29.683Z,1009.99
2018-06-07T12:07:39.108Z,1009.97
2018-06-07T12:08:48.267Z,1009.92
2018-06-07T12:09:57.432Z,1009.9
2018-06-07T12:11:06.587Z,1009.91
2018-06-07T12:12:16.515Z,1009.95
2018-06-07T12:13:26.290Z,1009.89
2018-06-07T12:14:36.004Z,1009.92
2018-06-07T12:15:45.476Z,1009.94
2018-06-07T12:16:54.914Z,1009.91
2018-06-07T12:18:04.349Z,1009.86
2018-06-07T12:19:13.273Z,1009.87
2018-06-07T12:20:23.208Z,1009.81
2018-06-07T12:21:32.361Z,1009.84
2018-06-07T12:22:41.776Z,1009.79
2018-06-07T12:23:50.959Z,1009.84
2018-06-07T12:25:00.629Z,1009.82
2018-06-07T12:26:10.572Z,1009.81
2018-06-07T12:27:20.009Z,1009.78
2018-06-07T12:28:29.437Z,1009.74
2018-06-07T12:29:39.123Z,1009.72
2018-06-07T12:30:48.296Z,1009.73
2018-06-07T12:31:57.901Z,1009.72
2018-06-07T12:33:07.705Z,1009.76
2018-06-07T12:34:16.660Z,1009.69
2018-06-07T12:35:25.853Z,1009.7
2018-06-07T12:36:35.525Z,1009.65
2018-06-07T12:37:44.950Z,1009.68
2018-06-07T12:38:53.851Z,1009.68
2018-06-07T12:40:02.552Z,1009.65
2018-06-07T12:41:13.135Z,1009.67
2018-06-07T12:42:22.295Z,1009.7
2018-06-07T12:43:31.195Z,1009.73
2018-06-07T12:44:40.630Z,1009.72
2018-06-07T12:45:49.555Z,1009.71
2018-06-07T12:46:59.600Z,1009.79
2018-06-07T12:48:09.888Z,1009.7
2018-06-07T12:49:19.310Z,1009.77
2018-06-07T12:50:28.715Z,1009.71
2018-06-07T12:51:37.866Z,1009.73
2018-06-07T12:52:47.053Z,1009.74
2018-06-07T12:53:56.735Z,1009.73
2018-06-07T12:55:05.968Z,1009.72
2018-06-07T12:56:15.856Z,1009.68
2018-06-07T12:57:25.844Z,1009.69
2018-06-07T12:58:35.538Z,1009.68
2018-06-07T12:59:44.446Z,1009.67
2018-06-07T13:00:53.865Z,1009.65
2018-06-07T13:02:03.304Z,1009.61
2018-06-07T13:03:12.754Z,1009.62
2018-06-07T13:04:22.752Z,1009.61
2018-06-07T13:05:32.433Z,1009.61
2018-06-07T13:06:42.113Z,1009.57
2018-06-07T13:07:52.480Z,1009.5
2018-06-07T13:09:01.639Z,1009.54
2018-06-07T13:10:10.534Z,1009.54
2018-06-07T13:11:20.370Z,1009.46
2018-06-07T13:12:29.791Z,1009.43
2018-06-07T13:13:39.479Z,1009.42
2018-06-07T13:14:48.638Z,1009.4
2018-06-07T13:15:58.069Z,1009.39
2018-06-07T13:17:07.497Z,1009.37
2018-06-07T13:18:17.163Z,1009.41
2018-06-07T13:19:26.075Z,1009.38
2018-06-07T13:20:35.542Z,1009.38
2018-06-07T13:21:44.972Z,1009.3
2018-06-07T13:22:54.149Z,1009.34
2018-06-07T13:24:03.578Z,1009.33
2018-06-07T13:25:13.289Z,1009.3
2018-06-07T13:26:22.728Z,1009.3
2018-06-07T13:27:31.916Z,1009.29
2018-06-07T13:28:41.149Z,1009.28
2018-06-07T13:29:51.333Z,1009.29
2018-06-07T13:31:01.018Z,1009.23
2018-06-07T13:32:09.925Z,1009.26
2018-06-07T13:33:19.365Z,1009.32
2018-06-07T13:34:29.049Z,1009.26
2018-06-07T13:35:38.723Z,1009.23
2018-06-07T13:36:48.409Z,1009.33
2018-06-07T13:37:57.585Z,1009.32
2018-06-07T13:39:07.283Z,1009.26
2018-06-07T13:40:16.728Z,1009.28
2018-06-07T13:41:26.300Z,1009.22
2018-06-07T13:42:35.733Z,1009.29
2018-06-07T13:43:45.149Z,1009.28
2018-06-07T13:44:54.327Z,1009.26
2018-06-07T13:46:03.775Z,1009.27
2018-06-07T13:47:12.677Z,1009.23
2018-06-07T13:48:22.351Z,1009.23
2018-06-07T13:49:31.786Z,1009.24
2018-06-07T13:50:41.569Z,1009.26
2018-06-07T13:51:51.272Z,1009.22
2018-06-07T13:53:00.754Z,1009.22
2018-06-07T13:54:09.916Z,1009.23
2018-06-07T13:55:19.340Z,1009.15
2018-06-07T13:56:28.767Z,1009.14
2018-06-07T13:57:37.930Z,1009.12
2018-06-07T13:58:47.371Z,1009.11
2018-06-07T13:59:56.798Z,1009.16
2018-06-07T14:01:05.988Z,1009.13
2018-06-07T14:02:15.142Z,1009.11
2018-06-07T14:03:24.031Z,1009.11